Time;durP1;ratioP1;P1;durP2;ratioP2;P2;SDS_P1;SDS_P2;PMS_P1;PMS_P2;Temp;Humidity;BMP_temperature;BMP_pressure;BME280_temperature;BME280_humidity;BME280_pressure;Samples;Min_cycle;Max_cycle;Signal;HPM_P1;HPM_P2
2022/09/20 00:01:05;;;;;;;2.30;0.70;;;21.80;45.30;;;;;;5049872;28;20067;-49
2022/09/20 00:03:31;;;;;;;3.10;1.00;;;21.80;45.30;;;;;;5036407;28;20063;-52
2022/09/20 00:06:00;;;;;;;2.70;1.23;;;21.70;45.30;;;;;;5040585;28;20099;-48
2022/09/20 00:08:26;;;;;;;2.13;0.73;;;21.70;45.30;;;;;;5044916;28;20464;-47
2022/09/20 00:11:00;;;;;;;1.70;0.70;;;21.70;45.40;;;;;;5046390;28;20444;-48
2022/09/20 00:13:27;;;;;;;2.10;0.70;;;21.70;45.40;;;;;;5045138;28;20024;-46
2022/09/20 00:15:52;;;;;;;1.98;0.70;;;21.70;45.40;;;;;;5048443;28;20037;-50
2022/09/20 00:18:18;;;;;;;2.95;0.80;;;21.70;45.40;;;;;;5034699;28;20033;-49
2022/09/20 00:20:45;;;;;;;2.17;0.70;;;21.70;45.50;;;;;;5045897;28;20028;-47
2022/09/20 00:23:11;;;;;;;1.65;0.63;;;21.70;45.50;;;;;;5044784;28;20482;-49
2022/09/20 00:25:37;;;;;;;2.55;1.10;;;21.70;45.50;;;;;;5048031;28;20104;-47
2022/09/20 00:28:04;;;;;;;2.80;0.75;;;21.70;45.50;;;;;;5047002;28;20044;-48
2022/09/20 00:30:31;;;;;;;1.88;0.70;;;21.70;45.60;;;;;;5048358;28;20043;-46
2022/09/20 00:32:57;;;;;;;2.50;1.02;;;21.70;45.60;;;;;;5042256;28;20037;-46
2022/09/20 00:35:23;;;;;;;2.92;0.80;;;21.70;45.60;;;;;;5042913;28;20037;-50
2022/09/20 00:37:48;;;;;;;2.88;0.90;;;21.60;45.50;;;;;;5047954;28;20052;-47
2022/09/20 00:40:19;;;;;;;2.63;1.10;;;21.60;45.50;;;;;;5045825;28;20048;-48
2022/09/20 00:42:45;;;;;;;1.88;0.68;;;21.70;45.60;;;;;;5042766;28;20108;-50
2022/09/20 00:45:24;;;;;;;2.05;0.80;;;21.60;45.60;;;;;;5043774;28;20032;-45
2022/09/20 00:48:14;;;;;;;3.25;0.98;;;21.60;45.60;;;;;;5045442;28;20024;-47
2022/09/20 00:51:06;;;;;;;2.17;0.60;;;21.60;45.70;;;;;;5044513;28;20053;-49
2022/09/20 00:53:43;;;;;;;3.42;1.13;;;21.60;45.70;;;;;;5043723;28;20035;-47
2022/09/20 00:56:12;;;;;;;3.08;0.98;;;21.60;45.90;;;;;;5039630;28;20044;-49
2022/09/20 00:58:53;;;;;;;2.45;0.80;;;21.60;45.90;;;;;;5044796;28;20028;-49
2022/09/20 01:01:19;;;;;;;2.05;0.65;;;21.60;45.90;;;;;;5045428;28;20068;-49
2022/09/20 01:03:46;;;;;;;2.25;0.90;;;21.60;45.90;;;;;;5047794;28;20385;-49
2022/09/20 01:06:15;;;;;;;2.13;0.95;;;21.60;45.90;;;;;;5045535;28;20785;-48
2022/09/20 01:08:44;;;;;;;2.45;0.68;;;21.60;46.00;;;;;;5043572;28;20056;-49
2022/09/20 01:11:11;;;;;;;2.83;0.80;;;21.60;46.00;;;;;;5046319;28;20048;-48
2022/09/20 01:13:37;;;;;;;3.38;0.80;;;21.60;46.00;;;;;;5046782;28;20052;-49
2022/09/20 01:16:04;;;;;;;2.03;1.10;;;21.50;46.00;;;;;;5044234;28;20041;-50
2022/09/20 01:18:32;;;;;;;1.05;0.52;;;21.50;46.00;;;;;;5043271;28;20087;-46
2022/09/20 01:21:00;;;;;;;2.45;0.70;;;21.60;46.10;;;;;;5043200;28;20349;-48
2022/09/20 01:23:31;;;;;;;1.35;0.70;;;21.50;46.00;;;;;;5044971;28;20033;-47
2022/09/20 01:26:12;;;;;;;2.60;0.98;;;21.50;46.00;;;;;;5044342;28;20031;-48
2022/09/20 01:28:41;;;;;;;2.28;0.80;;;21.50;46.00;;;;;;5047387;28;20058;-47
2022/09/20 01:31:34;;;;;;;2.38;0.73;;;21.50;45.90;;;;;;5042891;28;20025;-48
2022/09/20 01:34:04;;;;;;;1.80;0.65;;;21.50;45.90;;;;;;5040849;28;20024;-48
2022/09/20 01:36:43;;;;;;;1.90;0.60;;;21.50;46.00;;;;;;5046612;28;20333;-46
2022/09/20 01:39:24;;;;;;;2.25;0.77;;;21.50;46.00;;;;;;5046446;28;20102;-50
2022/09/20 01:42:05;;;;;;;2.10;0.85;;;21.50;46.00;;;;;;5047050;28;20029;-46
2022/09/20 01:44:41;;;;;;;1.20;0.50;;;21.50;45.90;;;;;;5046938;28;20020;-46
2022/09/20 01:47:22;;;;;;;2.60;0.60;;;21.50;45.90;;;;;;5046534;28;20025;-46
2022/09/20 01:50:10;;;;;;;3.13;0.80;;;21.50;46.00;;;;;;5047965;28;20029;-47
2022/09/20 01:53:03;;;;;;;1.83;0.70;;;21.50;46.00;;;;;;5045036;28;20033;-45
2022/09/20 01:55:42;;;;;;;1.90;0.77;;;21.50;45.90;;;;;;5045204;28;20048;-48
2022/09/20 01:58:25;;;;;;;1.15;0.60;;;21.50;45.90;;;;;;5044996;28;20036;-49
2022/09/20 02:01:18;;;;;;;1.20;0.47;;;21.40;45.90;;;;;;5045314;28;20040;-50
2022/09/20 02:04:26;;;;;;;1.45;0.57;;;21.40;45.90;;;;;;5042812;28;20028;-47
2022/09/20 02:07:09;;;;;;;2.13;0.70;;;21.40;45.80;;;;;;5047902;28;20043;-47
2022/09/20 02:10:02;;;;;;;4.50;0.80;;;21.40;45.90;;;;;;5043528;28;20094;-45
2022/09/20 02:12:53;;;;;;;1.83;0.80;;;21.40;45.90;;;;;;5050437;28;20033;-46
2022/09/20 02:15:30;;;;;;;1.35;0.63;;;21.40;45.90;;;;;;5050136;28;20040;-48
2022/09/20 02:18:46;;;;;;;1.88;0.60;;;21.40;45.90;;;;;;5047493;28;20333;-45
2022/09/20 02:21:36;;;;;;;2.28;0.60;;;21.40;46.00;;;;;;5044218;28;20166;-49
2022/09/20 02:24:39;;;;;;;1.55;0.57;;;21.40;45.90;;;;;;5046713;28;20468;-47
2022/09/20 02:27:16;;;;;;;2.60;0.60;;;21.40;45.90;;;;;;5048453;28;20578;-49
2022/09/20 02:30:11;;;;;;;2.13;0.70;;;21.40;46.00;;;;;;5047256;28;20120;-47
2022/09/20 02:32:55;;;;;;;1.88;0.60;;;21.40;46.00;;;;;;5046525;28;20025;-47
2022/09/20 02:35:39;;;;;;;2.78;0.80;;;21.40;46.00;;;;;;5048118;28;20048;-45
2022/09/20 02:38:25;;;;;;;2.47;0.90;;;21.40;46.00;;;;;;5047297;28;20040;-46
2022/09/20 02:41:21;;;;;;;1.52;0.73;;;21.40;46.10;;;;;;5051334;28;20116;-46
2022/09/20 02:44:05;;;;;;;2.35;0.55;;;21.40;46.10;;;;;;5044636;28;20060;-47
2022/09/20 02:47:03;;;;;;;3.85;0.70;;;21.40;46.10;;;;;;5047985;28;20029;-46
2022/09/20 02:49:32;;;;;;;2.28;0.60;;;21.40;46.10;;;;;;5043244;28;20452;-47
2022/09/20 02:52:18;;;;;;;1.30;0.50;;;21.40;46.20;;;;;;5049714;28;20021;-48
2022/09/20 02:55:07;;;;;;;2.33;0.60;;;21.30;46.10;;;;;;5042870;28;20468;-48
2022/09/20 02:57:45;;;;;;;3.03;0.77;;;21.30;46.20;;;;;;5046749;28;20037;-46
2022/09/20 03:00:41;;;;;;;3.35;0.73;;;21.30;46.30;;;;;;5038054;28;20409;-47
2022/09/20 03:03:40;;;;;;;1.90;0.70;;;21.30;46.30;;;;;;5043815;28;20440;-46
2022/09/20 03:06:29;;;;;;;3.22;0.65;;;21.30;46.30;;;;;;5047238;28;20033;-46
2022/09/20 03:09:03;;;;;;;1.67;0.43;;;21.30;46.40;;;;;;5045252;28;20037;-46
2022/09/20 03:11:45;;;;;;;2.25;0.50;;;21.30;46.40;;;;;;5045963;28;20039;-50
2022/09/20 03:14:21;;;;;;;1.13;0.60;;;21.30;46.40;;;;;;5046186;28;20455;-46
2022/09/20 03:17:02;;;;;;;0.85;0.50;;;21.30;46.40;;;;;;5045380;28;20352;-46
2022/09/20 03:20:07;;;;;;;1.85;0.60;;;21.30;46.40;;;;;;5045773;28;20139;-51
2022/09/20 03:22:58;;;;;;;1.92;0.65;;;21.30;46.40;;;;;;5049051;28;20089;-46
2022/09/20 03:25:42;;;;;;;3.00;0.70;;;21.30;46.40;;;;;;5049350;28;20021;-52
2022/09/20 03:28:37;;;;;;;2.50;0.60;;;21.30;46.40;;;;;;5044708;28;20028;-47
2022/09/20 03:31:36;;;;;;;3.05;0.73;;;21.30;46.40;;;;;;5048892;28;20033;-50
2022/09/20 03:34:17;;;;;;;1.45;0.65;;;21.30;46.40;;;;;;5044202;28;20025;-47
2022/09/20 03:36:52;;;;;;;1.63;0.60;;;21.30;46.40;;;;;;5041797;28;20045;-47
2022/09/20 03:39:23;;;;;;;;;;;21.20;46.40;;;;;;5050338;28;20029;-47
2022/09/20 03:42:26;;;;;;;2.63;0.50;;;21.30;46.40;;;;;;5048785;28;19908;-47
2022/09/20 03:45:13;;;;;;;2.55;0.50;;;21.30;46.50;;;;;;5030069;28;20468;-46
2022/09/20 03:48:04;;;;;;;1.67;0.57;;;21.20;46.50;;;;;;5046306;28;20064;-47
2022/09/20 03:50:45;;;;;;;1.38;0.52;;;21.20;46.50;;;;;;5047836;28;20026;-48
2022/09/20 03:53:23;;;;;;;3.28;0.70;;;21.20;46.50;;;;;;5046043;28;20083;-49
2022/09/20 03:56:28;;;;;;;2.33;0.60;;;21.20;46.60;;;;;;5042556;28;20037;-47
2022/09/20 03:59:23;;;;;;;2.83;0.68;;;21.20;46.60;;;;;;5033056;28;20037;-48
2022/09/20 04:02:13;;;;;;;;;;;21.20;46.60;;;;;;5043617;28;20025;-51
2022/09/20 04:04:53;;;;;;;0.95;0.50;;;21.20;46.70;;;;;;5045234;28;19917;-50
2022/09/20 04:07:38;;;;;;;2.22;0.50;;;21.20;46.70;;;;;;5044931;28;20045;-48
2022/09/20 04:10:16;;;;;;;1.58;0.60;;;21.20;46.70;;;;;;5040510;28;20441;-46
2022/09/20 04:12:48;;;;;;;1.98;0.82;;;21.20;46.70;;;;;;5046850;28;20089;-49
2022/09/20 04:15:45;;;;;;;1.63;0.40;;;21.20;46.80;;;;;;5044401;28;20393;-46
2022/09/20 04:18:32;;;;;;;1.63;0.60;;;21.20;46.80;;;;;;5045684;28;20361;-45
2022/09/20 04:21:30;;;;;;;2.03;0.57;;;21.20;46.80;;;;;;5047739;28;20025;-48
2022/09/20 04:24:22;;;;;;;1.63;0.60;;;21.20;46.80;;;;;;5043930;28;20388;-46
2022/09/20 04:26:54;;;;;;;0.93;0.40;;;21.20;46.80;;;;;;5044300;28;20505;-47
2022/09/20 04:29:29;;;;;;;1.50;0.43;;;21.20;46.80;;;;;;5046434;28;20449;-47
2022/09/20 04:32:10;;;;;;;1.38;0.52;;;21.20;46.80;;;;;;5046498;28;20029;-47
2022/09/20 04:37:51;;;;;;;1.52;0.50;;;21.20;46.90;;;;;;5047861;28;20029;-47
2022/09/20 04:40:42;;;;;;;1.48;0.50;;;21.20;46.90;;;;;;5048723;28;20043;-47
2022/09/20 04:43:52;;;;;;;1.08;0.47;;;21.20;46.90;;;;;;5040435;28;20472;-45
2022/09/20 04:46:21;;;;;;;2.10;0.80;;;21.20;46.90;;;;;;5037163;28;20052;-47
2022/09/20 04:49:05;;;;;;;1.35;0.57;;;21.20;46.90;;;;;;5046638;28;20334;-46
2022/09/20 04:51:50;;;;;;;1.52;0.55;;;21.20;47.00;;;;;;5042382;28;20082;-48
2022/09/20 04:54:33;;;;;;;0.98;0.47;;;21.20;47.00;;;;;;5048720;28;20039;-46
2022/09/20 04:57:18;;;;;;;2.23;0.50;;;21.10;46.90;;;;;;5045082;28;20036;-49
2022/09/20 05:00:00;;;;;;;2.50;0.70;;;21.20;47.00;;;;;;5046225;28;20288;-46
2022/09/20 05:03:00;;;;;;;1.17;0.40;;;21.20;47.00;;;;;;5036865;28;20037;-46
2022/09/20 05:05:44;;;;;;;1.48;0.30;;;21.20;47.00;;;;;;5045070;28;20049;-44
2022/09/20 05:08:13;;;;;;;2.10;0.32;;;21.10;46.90;;;;;;5037895;28;20388;-46
2022/09/20 05:11:08;;;;;;;0.82;0.40;;;21.20;47.00;;;;;;5047840;28;20021;-47
2022/09/20 05:14:11;;;;;;;3.15;0.70;;;21.20;47.00;;;;;;5043689;28;20030;-46
2022/09/20 05:16:56;;;;;;;1.90;0.60;;;21.10;47.00;;;;;;5022725;28;20069;-47
2022/09/20 05:19:38;;;;;;;1.67;0.60;;;21.10;47.00;;;;;;5046847;28;20438;-50
2022/09/20 05:22:23;;;;;;;2.53;0.50;;;21.10;47.00;;;;;;5044101;28;20029;-48
2022/09/20 05:25:05;;;;;;;;;;;21.10;47.00;;;;;;5042251;28;20029;-46
2022/09/20 05:27:50;;;;;;;0.77;0.40;;;21.10;47.00;;;;;;5044641;28;20332;-50
2022/09/20 05:30:48;;;;;;;1.75;0.57;;;21.10;47.00;;;;;;5047824;28;20467;-50
2022/09/20 05:33:43;;;;;;;1.48;0.57;;;21.10;47.00;;;;;;5022144;28;20129;-52
2022/09/20 05:36:19;;;;;;;0.77;0.50;;;21.10;47.00;;;;;;5042405;28;20037;-48
2022/09/20 05:38:44;;;;;;;2.60;0.57;;;21.10;47.00;;;;;;5049431;28;20356;-46
2022/09/20 05:41:23;;;;;;;1.33;0.40;;;21.10;47.00;;;;;;5049993;28;20032;-52
2022/09/20 05:44:11;;;;;;;1.25;0.40;;;21.10;47.00;;;;;;5046378;28;20033;-47
2022/09/20 05:47:09;;;;;;;1.38;0.40;;;21.10;47.00;;;;;;5044410;28;20363;-49
2022/09/20 05:49:43;;;;;;;1.20;0.60;;;21.10;47.00;;;;;;5040861;28;20032;-46
2022/09/20 05:52:30;;;;;;;3.22;0.70;;;21.10;47.00;;;;;;5049252;28;20045;-49
2022/09/20 05:55:12;;;;;;;1.15;0.40;;;21.10;47.10;;;;;;5045814;28;20055;-48
2022/09/20 05:58:31;;;;;;;1.42;0.60;;;21.10;47.10;;;;;;5048882;28;20028;-47
2022/09/20 06:01:12;;;;;;;1.13;0.32;;;21.10;47.00;;;;;;5011875;28;20117;-49
2022/09/20 06:03:55;;;;;;;1.38;0.45;;;21.10;47.00;;;;;;5008161;28;20539;-46
2022/09/20 06:06:39;;;;;;;1.27;0.50;;;21.10;47.00;;;;;;5038520;28;20052;-47
2022/09/20 06:09:39;;;;;;;1.40;0.40;;;21.10;47.00;;;;;;5044291;28;20049;-48
2022/09/20 06:12:23;;;;;;;1.35;0.50;;;21.10;47.00;;;;;;5045584;28;20069;-49
2022/09/20 06:15:10;;;;;;;2.17;0.80;;;21.10;47.00;;;;;;5048736;28;20123;-47
2022/09/20 06:17:48;;;;;;;1.55;0.40;;;21.10;47.00;;;;;;5046177;28;20038;-48
2022/09/20 06:20:36;;;;;;;1.45;0.43;;;21.10;47.00;;;;;;5048903;28;20051;-49
2022/09/20 06:23:04;;;;;;;2.13;0.52;;;21.10;47.00;;;;;;5041312;28;20089;-46
2022/09/20 06:25:55;;;;;;;1.58;0.60;;;21.10;47.10;;;;;;5041378;28;20025;-47
2022/09/20 06:28:25;;;;;;;3.58;0.47;;;21.10;47.00;;;;;;5048769;28;20086;-47
2022/09/20 06:30:53;;;;;;;1.08;0.45;;;21.10;47.10;;;;;;5050359;28;20032;-49
2022/09/20 06:33:27;;;;;;;2.40;0.60;;;21.10;47.10;;;;;;5043678;28;20037;-49
2022/09/20 06:42:28;;;;;;;2.72;0.70;;;21.10;47.10;;;;;;5017566;28;20034;-50
2022/09/20 06:44:55;;;;;;;1.85;0.50;;;21.10;47.10;;;;;;5022663;28;20029;-49
2022/09/20 06:47:22;;;;;;;2.50;0.73;;;21.10;47.10;;;;;;5033412;28;20041;-49
2022/09/20 06:49:48;;;;;;;1.30;0.40;;;21.10;47.10;;;;;;5041595;28;20120;-48
2022/09/20 06:52:17;;;;;;;4.00;0.70;;;21.10;47.20;;;;;;5045353;28;20032;-49
2022/09/20 06:54:45;;;;;;;1.85;0.52;;;21.10;47.20;;;;;;5045978;28;20029;-49
2022/09/20 06:57:15;;;;;;;2.15;0.57;;;21.10;47.20;;;;;;5062854;28;20109;-48
2022/09/20 06:59:41;;;;;;;0.82;0.47;;;21.10;47.30;;;;;;5039557;28;20033;-49
2022/09/20 07:02:07;;;;;;;1.00;0.45;;;21.10;47.20;;;;;;5041304;28;20022;-48
2022/09/20 07:04:33;;;;;;;1.63;0.50;;;21.10;47.20;;;;;;5046941;28;20033;-51
2022/09/20 07:07:04;;;;;;;2.05;0.65;;;21.10;47.10;;;;;;5036565;28;20044;-50
2022/09/20 07:09:30;;;;;;;1.27;0.50;;;21.20;47.10;;;;;;5042600;28;20029;-51
2022/09/20 07:11:58;;;;;;;1.27;0.57;;;21.20;47.00;;;;;;5035405;28;20029;-49
2022/09/20 07:14:25;;;;;;;0.82;0.50;;;21.10;46.90;;;;;;5044806;28;20037;-47
2022/09/20 07:16:51;;;;;;;1.92;0.50;;;21.10;46.90;;;;;;5039559;28;20052;-47
2022/09/20 07:19:18;;;;;;;2.80;0.88;;;21.10;46.80;;;;;;5043863;28;20112;-48
2022/09/20 07:21:43;;;;;;;3.47;0.70;;;21.10;46.80;;;;;;5037939;28;20051;-49
2022/09/20 07:24:09;;;;;;;1.38;0.40;;;21.10;46.80;;;;;;5045760;28;20033;-46
2022/09/20 07:26:35;;;;;;;1.80;0.40;;;21.10;46.80;;;;;;5045379;28;20986;-46
2022/09/20 07:29:01;;;;;;;2.85;0.60;;;21.10;46.80;;;;;;5044773;28;20098;-47
2022/09/20 07:31:28;;;;;;;1.58;0.60;;;21.10;46.80;;;;;;5045271;28;20033;-50
2022/09/20 07:33:55;;;;;;;1.83;0.50;;;21.10;46.80;;;;;;5041996;28;20033;-49
2022/09/20 07:36:21;;;;;;;1.08;0.32;;;21.10;46.80;;;;;;5042636;28;20047;-48
2022/09/20 07:38:51;;;;;;;1.85;0.50;;;21.10;46.80;;;;;;5045611;28;20039;-48
2022/09/20 07:41:18;;;;;;;1.65;0.55;;;21.10;46.80;;;;;;5036193;28;20037;-48
2022/09/20 07:43:45;;;;;;;1.63;0.60;;;21.10;46.80;;;;;;5038849;28;20033;-48
2022/09/20 07:46:14;;;;;;;1.02;0.30;;;21.10;46.80;;;;;;5034507;28;20037;-51
2022/09/20 07:48:40;;;;;;;1.48;0.47;;;21.10;46.90;;;;;;5033939;28;20022;-48
2022/09/20 07:51:11;;;;;;;1.98;0.47;;;21.20;47.00;;;;;;5042032;28;20052;-48
2022/09/20 07:53:38;;;;;;;1.35;0.43;;;21.20;47.00;;;;;;5039722;28;20503;-48
2022/09/20 07:56:05;;;;;;;2.08;0.90;;;21.10;47.00;;;;;;5035115;28;20045;-48
2022/09/20 07:58:33;;;;;;;0.85;0.40;;;21.20;47.10;;;;;;5043512;28;20033;-47
2022/09/20 08:01:05;;;;;;;2.05;0.40;;;21.20;47.10;;;;;;5039581;28;20331;-48
2022/09/20 08:03:33;;;;;;;1.63;0.60;;;21.20;47.20;;;;;;5031451;28;20048;-47
2022/09/20 08:06:00;;;;;;;1.55;0.50;;;21.10;47.20;;;;;;5035658;28;20038;-46
2022/09/20 08:08:27;;;;;;;2.30;0.63;;;21.20;47.30;;;;;;5034822;28;20060;-48
2022/09/20 08:11:00;;;;;;;1.45;0.43;;;21.20;47.30;;;;;;5035076;28;20045;-46
2022/09/20 08:13:28;;;;;;;3.83;0.70;;;21.20;47.40;;;;;;5035584;28;20033;-46
2022/09/20 08:16:04;;;;;;;1.15;0.43;;;21.20;47.50;;;;;;5035342;28;20045;-46
2022/09/20 08:18:30;;;;;;;2.58;0.70;;;21.20;47.50;;;;;;5035635;28;20132;-49
2022/09/20 08:20:56;;;;;;;4.10;0.60;;;21.20;47.50;;;;;;5035510;28;20136;-47
2022/09/20 08:23:22;;;;;;;1.15;0.45;;;21.20;47.60;;;;;;5035567;28;20041;-48
2022/09/20 08:25:48;;;;;;;0.60;0.35;;;21.20;47.60;;;;;;5034652;28;20026;-48
2022/09/20 08:28:14;;;;;;;1.67;0.80;;;21.20;47.60;;;;;;5035325;28;20104;-46
2022/09/20 08:30:40;;;;;;;1.02;0.40;;;21.20;47.70;;;;;;5035776;28;20492;-48
2022/09/20 08:33:06;;;;;;;1.58;0.47;;;21.20;47.70;;;;;;5035807;28;20083;-46
2022/09/20 08:35:35;;;;;;;3.42;0.70;;;21.20;47.70;;;;;;5039648;28;20037;-47
2022/09/20 08:38:01;;;;;;;2.28;0.50;;;21.20;47.70;;;;;;5035292;28;20339;-48
2022/09/20 08:40:29;;;;;;;2.53;0.63;;;21.20;47.70;;;;;;5034077;28;20076;-50
2022/09/20 08:42:56;;;;;;;1.58;0.43;;;21.20;47.70;;;;;;5035094;28;20116;-46
2022/09/20 08:45:25;;;;;;;1.92;0.50;;;21.20;47.70;;;;;;5034747;28;20026;-46
2022/09/20 08:47:58;;;;;;;0.80;0.40;;;21.20;47.80;;;;;;5035523;28;20034;-49
2022/09/20 08:50:25;;;;;;;1.55;0.50;;;21.20;47.80;;;;;;5048814;28;20040;-46
2022/09/20 08:52:54;;;;;;;1.25;0.50;;;21.20;47.80;;;;;;5052917;28;20037;-46
2022/09/20 08:55:21;;;;;;;1.17;0.30;;;21.20;47.80;;;;;;5036824;28;20045;-51
2022/09/20 08:57:56;;;;;;;1.10;0.50;;;21.20;47.70;;;;;;5037816;28;20064;-46
2022/09/20 09:00:25;;;;;;;2.95;0.70;;;21.30;47.70;;;;;;5034657;28;20456;-49
2022/09/20 09:02:57;;;;;;;2.47;0.80;;;21.30;47.60;;;;;;5045642;28;20028;-49
2022/09/20 09:05:34;;;;;;;1.70;0.50;;;21.30;47.60;;;;;;5035835;28;20037;-50
2022/09/20 09:08:06;;;;;;;1.80;0.70;;;21.30;47.50;;;;;;5032107;28;20037;-50
2022/09/20 09:10:36;;;;;;;1.95;0.52;;;21.30;47.50;;;;;;5048450;28;20068;-46
2022/09/20 09:13:04;;;;;;;1.23;0.50;;;21.30;47.50;;;;;;5058877;28;20412;-51
2022/09/20 09:15:34;;;;;;;2.15;0.60;;;21.30;47.50;;;;;;5039797;28;20038;-47
2022/09/20 09:18:00;;;;;;;1.33;0.45;;;21.30;47.50;;;;;;5051591;28;20045;-49
2022/09/20 09:20:26;;;;;;;0.75;0.40;;;21.30;47.50;;;;;;5047870;28;20054;-48
2022/09/20 09:22:59;;;;;;;1.40;0.43;;;21.30;47.40;;;;;;5074948;28;20368;-46
2022/09/20 09:25:33;;;;;;;0.97;0.50;;;21.40;47.40;;;;;;5059328;28;20090;-48
2022/09/20 09:28:06;;;;;;;1.98;0.57;;;21.40;47.30;;;;;;5054457;28;20040;-46
2022/09/20 09:30:43;;;;;;;1.52;0.55;;;21.40;47.30;;;;;;5051910;28;20029;-47
2022/09/20 09:33:30;;;;;;;1.08;0.40;;;21.40;47.20;;;;;;5056422;28;20028;-48
2022/09/20 09:36:14;;;;;;;4.07;0.82;;;21.40;47.20;;;;;;5058530;28;20364;-47
2022/09/20 09:38:46;;;;;;;1.33;0.38;;;21.40;47.10;;;;;;5049697;28;20029;-47
2022/09/20 09:41:23;;;;;;;1.23;0.50;;;21.40;47.10;;;;;;5052966;28;20029;-49
2022/09/20 09:44:17;;;;;;;1.92;0.55;;;21.40;47.00;;;;;;5035442;28;20045;-48
2022/09/20 09:46:43;;;;;;;2.58;0.47;;;21.40;46.90;;;;;;5043994;28;20029;-46
2022/09/20 09:49:20;;;;;;;1.58;0.40;;;21.40;46.80;;;;;;5033649;28;20030;-46
2022/09/20 09:52:00;;;;;;;0.90;0.32;;;21.40;46.70;;;;;;5052117;28;20036;-46
2022/09/20 09:54:37;;;;;;;1.75;0.68;;;21.40;46.50;;;;;;5057816;28;20448;-46
2022/09/20 09:57:33;;;;;;;2.03;0.65;;;21.40;46.50;;;;;;5052861;28;20412;-48
2022/09/20 10:00:16;;;;;;;0.85;0.32;;;21.40;46.50;;;;;;5047965;28;20115;-46
2022/09/20 10:03:03;;;;;;;1.08;0.38;;;21.40;46.50;;;;;;5040075;28;20029;-48
2022/09/20 10:05:53;;;;;;;1.83;0.50;;;21.40;46.50;;;;;;5038715;28;20037;-49
2022/09/20 10:08:36;;;;;;;1.20;0.50;;;21.40;46.50;;;;;;5035554;28;20064;-48
2022/09/20 10:11:27;;;;;;;1.17;0.55;;;21.40;46.50;;;;;;5018464;28;20367;-49
2022/09/20 10:14:16;;;;;;;2.50;0.52;;;21.50;46.90;;;;;;5035143;28;20059;-49
2022/09/20 10:17:02;;;;;;;1.77;0.43;;;21.50;46.90;;;;;;5039406;28;20124;-46
2022/09/20 10:19:28;;;;;;;1.27;0.47;;;21.50;46.80;;;;;;5041043;28;20044;-50
2022/09/20 10:22:07;;;;;;;2.15;0.68;;;21.50;46.70;;;;;;5039838;28;20175;-49
2022/09/20 10:25:02;;;;;;;20.85;1.45;;;21.50;46.50;;;;;;5035317;28;20078;-57
2022/09/20 10:27:36;;;;;;;6.05;1.33;;;21.50;46.50;;;;;;5025356;28;20037;-57
2022/09/20 10:30:15;;;;;;;9.15;1.25;;;21.50;46.50;;;;;;5052119;28;20025;-55
2022/09/20 10:32:48;;;;;;;8.35;1.00;;;21.60;46.60;;;;;;5030182;28;20087;-55
2022/09/20 10:35:44;;;;;;;9.20;1.17;;;21.60;46.60;;;;;;5041670;28;20041;-58
2022/09/20 10:38:29;;;;;;;6.55;0.82;;;21.70;46.60;;;;;;5037004;28;20116;-55
2022/09/20 10:44:22;;;;;;;5.22;0.75;;;22.00;46.80;;;;;;5031260;28;20029;-55
2022/09/20 10:47:14;;;;;;;3.40;0.77;;;22.10;46.50;;;;;;5031630;28;20021;-55
2022/09/20 10:50:07;;;;;;;3.88;0.50;;;22.20;46.20;;;;;;5040383;28;20152;-55
2022/09/20 10:52:48;;;;;;;9.18;0.90;;;22.30;46.00;;;;;;5035597;28;20395;-58
2022/09/20 10:55:39;;;;;;;3.63;0.68;;;22.50;45.70;;;;;;5034905;28;20037;-54
2022/09/20 10:58:25;;;;;;;1.95;0.57;;;22.60;45.40;;;;;;5033886;28;20044;-57
2022/09/20 11:01:16;;;;;;;4.10;0.93;;;22.70;45.10;;;;;;5032136;28;20025;-57
2022/09/20 11:04:03;;;;;;;4.57;0.65;;;22.80;44.70;;;;;;5021182;28;20049;-55
2022/09/20 11:07:01;;;;;;;2.30;0.40;;;22.90;44.40;;;;;;5033765;28;20476;-60
2022/09/20 11:09:33;;;;;;;5.28;0.75;;;23.00;44.00;;;;;;5035997;28;20104;-56
2022/09/20 11:12:08;;;;;;;3.50;0.57;;;23.10;43.70;;;;;;5034784;28;20042;-52
2022/09/20 11:14:42;;;;;;;8.38;1.05;;;23.10;43.40;;;;;;5034635;28;20034;-58
2022/09/20 11:17:18;;;;;;;12.20;1.27;;;23.20;43.30;;;;;;5033196;28;20132;-58
2022/09/20 11:20:02;;;;;;;10.35;1.23;;;23.30;43.30;;;;;;5036373;28;20388;-58
2022/09/20 11:22:47;;;;;;;9.02;1.02;;;23.40;43.10;;;;;;5034644;28;20400;-59
2022/09/20 11:25:47;;;;;;;9.77;1.10;;;23.50;42.90;;;;;;5034369;28;20104;-62
2022/09/20 11:28:19;;;;;;;4.97;0.75;;;23.50;42.60;;;;;;5033372;28;20118;-57
2022/09/20 11:31:26;;;;;;;4.80;0.73;;;23.60;42.50;;;;;;5033808;28;20057;-56
2022/09/20 11:34:10;;;;;;;4.75;0.80;;;23.60;42.30;;;;;;5032890;28;20098;-60
2022/09/20 11:36:46;;;;;;;3.78;1.02;;;23.70;42.30;;;;;;5034179;28;20475;-58
2022/09/20 11:39:19;;;;;;;7.10;1.15;;;23.70;42.20;;;;;;5031395;28;20544;-59
2022/09/20 11:41:47;;;;;;;3.95;0.73;;;23.80;42.20;;;;;;5032461;28;20029;-58
2022/09/20 11:44:18;;;;;;;4.65;1.00;;;23.80;42.20;;;;;;5044872;28;20048;-59
2022/09/20 11:47:05;;;;;;;7.50;0.98;;;23.90;42.10;;;;;;5032415;28;20048;-60
2022/09/20 11:49:53;;;;;;;5.05;0.80;;;23.90;42.00;;;;;;5042963;28;20476;-58
2022/09/20 11:52:30;;;;;;;2.33;0.70;;;24.00;42.10;;;;;;5038803;28;20017;-58
2022/09/20 11:55:09;;;;;;;5.78;1.02;;;24.00;42.00;;;;;;5040586;28;20117;-57
2022/09/20 11:57:36;;;;;;;2.28;0.60;;;24.10;42.00;;;;;;5035229;28;21567;-59
2022/09/20 12:00:06;;;;;;;2.47;0.57;;;24.10;42.00;;;;;;5038986;28;20037;-59
2022/09/20 12:02:46;;;;;;;2.67;0.80;;;24.10;42.00;;;;;;5035239;28;20491;-55
2022/09/20 12:05:34;;;;;;;;;;;24.20;42.00;;;;;;5036245;28;20048;-57
2022/09/20 12:08:04;;;;;;;3.75;0.77;;;24.20;41.90;;;;;;5035985;28;19917;-57
2022/09/20 12:10:34;;;;;;;6.95;0.90;;;24.20;41.90;;;;;;5036699;28;20052;-56
2022/09/20 12:13:04;;;;;;;7.70;0.85;;;24.20;41.80;;;;;;5039729;28;20033;-57
2022/09/20 12:15:38;;;;;;;3.95;0.93;;;24.30;41.80;;;;;;5035294;28;20041;-58
2022/09/20 12:18:07;;;;;;;;;;;24.30;41.70;;;;;;5033976;28;20117;-57
2022/09/20 12:20:33;;;;;;;3.72;0.70;;;24.30;41.70;;;;;;5034170;28;19917;-58
2022/09/20 12:23:39;;;;;;;3.33;0.70;;;24.30;41.60;;;;;;5042943;28;20658;-58
2022/09/20 12:26:09;;;;;;;2.80;0.73;;;24.40;41.40;;;;;;5035189;28;20021;-56
2022/09/20 12:28:38;;;;;;;2.17;0.60;;;24.40;41.30;;;;;;5031694;28;20056;-57
2022/09/20 12:31:24;;;;;;;5.03;0.60;;;24.40;41.00;;;;;;5036007;28;20346;-57
2022/09/20 12:34:10;;;;;;;4.95;0.60;;;24.50;41.10;;;;;;5033307;28;20045;-55
2022/09/20 12:36:54;;;;;;;1.33;0.47;;;24.40;40.90;;;;;;5028622;28;20052;-53
2022/09/20 12:39:32;;;;;;;3.63;0.77;;;24.50;40.80;;;;;;5033248;28;20360;-55
2022/09/20 12:41:59;;;;;;;2.60;0.73;;;24.50;40.70;;;;;;5041111;28;20230;-58
2022/09/20 12:44:38;;;;;;;4.28;0.77;;;24.50;40.60;;;;;;5039691;28;20021;-57
2022/09/20 12:47:10;;;;;;;2.63;0.80;;;24.50;40.50;;;;;;5037707;28;20090;-58
2022/09/20 12:55:40;;;;;;;1.98;0.50;;;24.70;40.50;;;;;;5033979;28;20064;-56
2022/09/20 12:58:14;;;;;;;7.03;0.60;;;24.80;40.50;;;;;;5028772;28;20697;-60
2022/09/20 13:00:45;;;;;;;2.10;0.85;;;24.90;40.50;;;;;;5037340;28;20108;-60
2022/09/20 13:03:14;;;;;;;4.85;0.70;;;24.90;40.60;;;;;;5031069;28;20456;-57
2022/09/20 13:05:47;;;;;;;1.75;0.60;;;24.90;40.30;;;;;;5035668;28;20333;-58
2022/09/20 13:08:27;;;;;;;4.07;0.50;;;25.00;40.30;;;;;;5033890;28;20045;-60
2022/09/20 13:10:56;;;;;;;1.48;0.50;;;25.00;40.20;;;;;;5034292;28;20026;-62
2022/09/20 13:13:43;;;;;;;2.78;0.65;;;25.00;40.20;;;;;;5034513;28;20029;-59
2022/09/20 13:16:37;;;;;;;1.42;0.47;;;25.00;40.30;;;;;;5033928;28;20041;-59
2022/09/20 13:19:11;;;;;;;1.73;0.50;;;25.00;40.40;;;;;;5028406;28;20041;-57
2022/09/20 13:21:41;;;;;;;1.40;0.57;;;25.00;40.30;;;;;;5037096;28;20353;-55
2022/09/20 13:24:14;;;;;;;1.52;0.47;;;25.10;40.30;;;;;;5029414;28;20034;-56
2022/09/20 13:26:45;;;;;;;0.98;0.40;;;25.10;40.10;;;;;;5033198;28;20039;-58
2022/09/20 13:29:36;;;;;;;5.75;0.63;;;25.10;40.00;;;;;;5034996;28;20021;-59
2022/09/20 13:32:29;;;;;;;6.20;0.65;;;25.10;40.00;;;;;;5035071;28;20065;-56
2022/09/20 13:35:21;;;;;;;2.92;0.60;;;25.10;40.10;;;;;;5032965;28;21515;-59
2022/09/20 13:37:56;;;;;;;3.15;0.52;;;25.10;40.00;;;;;;5033556;28;20037;-57
2022/09/20 13:40:30;;;;;;;3.33;0.40;;;25.10;40.00;;;;;;5031236;28;20034;-56
2022/09/20 13:42:58;;;;;;;2.40;0.45;;;25.10;40.00;;;;;;5032650;28;20025;-59
2022/09/20 13:45:25;;;;;;;1.67;0.50;;;25.10;40.00;;;;;;5037009;28;20037;-59
2022/09/20 13:47:53;;;;;;;2.05;0.60;;;25.10;40.00;;;;;;5040830;28;20029;-58
2022/09/20 13:50:25;;;;;;;1.48;0.30;;;25.10;39.90;;;;;;5035561;28;20033;-55
2022/09/20 13:52:55;;;;;;;1.63;0.40;;;25.10;39.90;;;;;;5035043;28;20025;-52
2022/09/20 13:55:32;;;;;;;2.38;0.47;;;25.10;39.80;;;;;;5042258;28;20033;-51
2022/09/20 13:58:07;;;;;;;1.38;0.40;;;25.10;39.60;;;;;;5040786;28;20131;-47
2022/09/20 14:00:42;;;;;;;0.73;0.30;;;25.10;39.50;;;;;;5035588;28;20503;-51
2022/09/20 14:03:17;;;;;;;4.18;0.63;;;25.10;39.40;;;;;;5035736;28;20460;-51